createdAt,value
2022-10-08T00:01:14.905Z,8.32
2022-10-08T00:06:22.722Z,10.82
2022-10-08T00:11:28.028Z,10.48
2022-10-08T00:16:34.810Z,11.07
2022-10-08T00:21:41.691Z,10.95
2022-10-08T00:26:45.559Z,12.30
2022-10-08T00:31:51.978Z,11.60
2022-10-08T00:36:56.820Z,11.27
2022-10-08T00:42:02.270Z,10.88
2022-10-08T00:47:06.962Z,11.30
2022-10-08T00:52:10.227Z,11.82
2022-10-08T00:57:13.644Z,12.10
2022-10-08T01:02:19.504Z,12.00
2022-10-08T01:07:27.571Z,11.20
2022-10-08T01:12:45.708Z,11.73
2022-10-08T01:18:00.113Z,12.55
2022-10-08T01:23:31.950Z,12.98
2022-10-08T01:28:43.581Z,11.98
2022-10-08T01:33:52.190Z,13.80
2022-10-08T01:38:59.844Z,12.73
2022-10-08T01:44:10.148Z,13.32
2022-10-08T01:49:18.557Z,13.75
2022-10-08T01:54:25.045Z,14.43
2022-10-08T01:59:34.460Z,14.13
2022-10-08T02:04:38.128Z,15.48
2022-10-08T02:09:43.743Z,16.10
2022-10-08T02:14:51.140Z,14.57
2022-10-08T02:19:58.866Z,15.18
2022-10-08T02:25:10.725Z,15.65
2022-10-08T02:30:15.582Z,16.20
2022-10-08T02:40:56.681Z,15.57
2022-10-08T02:46:05.043Z,14.52
2022-10-08T02:51:14.697Z,13.43
2022-10-08T02:56:22.977Z,13.45
2022-10-08T03:01:36.947Z,13.52
2022-10-08T03:06:41.053Z,12.13
2022-10-08T03:11:44.687Z,12.23
2022-10-08T03:16:49.691Z,11.95
2022-10-08T03:21:56.374Z,11.23
2022-10-08T03:26:59.950Z,10.95
2022-10-08T03:32:06.823Z,12.10
2022-10-08T03:37:10.159Z,11.27
2022-10-08T03:42:14.063Z,10.98
2022-10-08T03:47:18.687Z,11.63
2022-10-08T03:52:21.920Z,10.90
2022-10-08T03:57:25.195Z,11.50
2022-10-08T04:02:29.899Z,11.20
2022-10-08T04:07:33.245Z,12.20
2022-10-08T04:12:36.519Z,11.80
2022-10-08T04:17:41.954Z,12.35
2022-10-08T04:22:45.453Z,11.32
2022-10-08T04:27:50.052Z,12.15
2022-10-08T04:32:54.605Z,12.52
2022-10-08T04:37:57.876Z,13.77
2022-10-08T04:43:01.073Z,13.73
2022-10-08T04:48:05.726Z,13.55
2022-10-08T04:53:09.501Z,14.20
2022-10-08T04:58:12.676Z,12.70
2022-10-08T05:03:18.529Z,13.25
2022-10-08T05:08:22.771Z,12.35
2022-10-08T05:13:27.142Z,12.77
2022-10-08T05:18:32.706Z,13.13
2022-10-08T05:23:41.226Z,13.32
2022-10-08T05:28:45.064Z,12.07
2022-10-08T05:33:49.946Z,12.18
2022-10-08T05:38:53.934Z,12.50
2022-10-08T05:43:58.668Z,12.23
2022-10-08T05:49:06.469Z,13.70
2022-10-08T05:54:10.259Z,13.27
2022-10-08T05:59:19.617Z,13.02
2022-10-08T06:04:24.292Z,12.35
2022-10-08T06:09:27.609Z,12.77
2022-10-08T06:14:30.883Z,12.82
2022-10-08T06:19:37.226Z,13.18
2022-10-08T06:24:40.572Z,14.50
2022-10-08T06:29:43.787Z,14.80
2022-10-08T06:34:48.435Z,13.68
2022-10-08T06:39:51.637Z,13.77
2022-10-08T06:44:58.677Z,11.77
2022-10-08T06:50:07.975Z,11.50
2022-10-08T06:55:11.264Z,12.45
2022-10-08T07:00:16.963Z,10.68
2022-10-08T07:05:22.087Z,8.88
2022-10-08T07:10:29.724Z,8.45
2022-10-08T07:15:35.894Z,8.43
2022-10-08T07:20:40.502Z,14.57
2022-10-08T07:25:44.843Z,12.57
2022-10-08T07:30:48.253Z,7.65
2022-10-08T07:35:53.327Z,7.22
2022-10-08T07:40:56.633Z,7.18
2022-10-08T07:45:59.884Z,7.38
2022-10-08T07:51:10.347Z,11.13
2022-10-08T07:56:16.856Z,7.35
2022-10-08T08:01:22.830Z,7.05
2022-10-08T08:06:28.186Z,6.88
2022-10-08T08:11:31.907Z,6.93
2022-10-08T08:16:35.522Z,6.68
2022-10-08T08:21:40.413Z,6.65
2022-10-08T08:26:44.785Z,7.13
2022-10-08T08:31:49.335Z,5.07
2022-10-08T08:36:55.909Z,4.55
2022-10-08T08:42:12.975Z,4.20
2022-10-08T08:52:50.672Z,4.38
2022-10-08T08:58:00.429Z,3.88
2022-10-08T09:03:11.820Z,4.28
2022-10-08T09:08:20.163Z,2.55
2022-10-08T09:13:28.247Z,2.90
2022-10-08T09:18:31.721Z,2.50
2022-10-08T09:23:36.432Z,3.15
2022-10-08T09:28:42.250Z,2.03
2022-10-08T09:33:46.214Z,2.28
2022-10-08T09:38:59.511Z,2.47
2022-10-08T09:44:21.013Z,2.28
2022-10-08T09:49:31.203Z,2.95
2022-10-08T09:54:38.549Z,2.25
2022-10-08T09:59:49.470Z,3.55
2022-10-08T10:04:55.755Z,2.35
2022-10-08T10:10:04.721Z,2.20
2022-10-08T10:15:16.487Z,1.63
2022-10-08T10:20:26.445Z,2.38
2022-10-08T10:25:39.710Z,2.00
2022-10-08T10:30:52.368Z,1.75
2022-10-08T10:36:01.243Z,1.50
2022-10-08T10:41:17.237Z,1.85
2022-10-08T10:46:26.541Z,2.13
2022-10-08T10:51:58.754Z,1.92
2022-10-08T10:57:09.599Z,1.55
2022-10-08T11:02:21.777Z,1.60
2022-10-08T11:07:48.835Z,1.55
2022-10-08T11:12:57.934Z,1.40
2022-10-08T11:18:16.150Z,1.70
2022-10-08T11:23:53.880Z,1.30
2022-10-08T11:29:09.717Z,1.20
2022-10-08T11:34:23.597Z,1.50
2022-10-08T11:39:33.989Z,1.10
2022-10-08T11:44:38.756Z,1.55
2022-10-08T11:49:55.160Z,1.30
2022-10-08T11:55:01.096Z,1.00
2022-10-08T12:00:12.371Z,1.50
2022-10-08T12:05:32.770Z,1.45
2022-10-08T12:10:37.259Z,1.83
2022-10-08T12:15:53.745Z,1.25
2022-10-08T12:21:30.315Z,1.70
2022-10-08T12:26:33.790Z,1.95
2022-10-08T12:31:40.352Z,1.60
2022-10-08T12:36:53.055Z,1.90
2022-10-08T12:47:45.011Z,1.55
2022-10-08T12:52:48.688Z,1.35
2022-10-08T12:57:53.370Z,1.40
2022-10-08T13:03:02.401Z,1.60
2022-10-08T13:08:30.058Z,1.10
2022-10-08T13:13:36.488Z,1.00
2022-10-08T13:18:42.968Z,1.05
2022-10-08T13:23:46.441Z,1.10
2022-10-08T13:29:00.289Z,1.25
2022-10-08T13:34:06.102Z,1.25
2022-10-08T13:39:21.426Z,1.48
2022-10-08T13:44:25.773Z,1.48
2022-10-08T13:55:02.689Z,1.23
2022-10-08T14:00:08.818Z,1.02
2022-10-08T14:05:13.653Z,1.52
2022-10-08T14:10:19.537Z,1.23
2022-10-08T14:15:22.870Z,1.10
2022-10-08T14:20:27.706Z,1.10
2022-10-08T14:25:32.044Z,0.98
2022-10-08T14:30:40.027Z,0.95
2022-10-08T14:35:44.793Z,0.90
2022-10-08T14:40:47.987Z,1.67
2022-10-08T14:45:51.294Z,1.10
2022-10-08T14:50:57.690Z,1.10
2022-10-08T14:56:12.177Z,0.93
2022-10-08T15:01:16.078Z,0.55
2022-10-08T15:06:21.203Z,0.88
2022-10-08T15:11:24.465Z,0.65
2022-10-08T15:16:27.775Z,1.00
2022-10-08T15:21:37.138Z,0.70
2022-10-08T15:26:40.485Z,0.73
2022-10-08T15:31:45.035Z,0.80
2022-10-08T15:36:49.948Z,0.55
2022-10-08T15:41:54.501Z,0.57
2022-10-08T15:47:01.607Z,0.50
2022-10-08T15:52:07.677Z,0.60
2022-10-08T15:57:12.844Z,0.55
2022-10-08T16:02:18.033Z,2.45
2022-10-08T16:07:23.037Z,1.33
2022-10-08T16:12:26.447Z,1.05
2022-10-08T16:17:30.705Z,0.93
2022-10-08T16:22:35.428Z,0.90
2022-10-08T16:27:38.803Z,0.90
2022-10-08T16:32:45.146Z,0.70
2022-10-08T16:37:51.998Z,0.90
2022-10-08T16:42:55.565Z,1.02
2022-10-08T16:47:58.873Z,1.02
2022-10-08T16:53:03.672Z,3.65
2022-10-08T16:58:07.473Z,1.80
2022-10-08T17:03:10.848Z,1.60
2022-10-08T17:08:15.547Z,1.08
2022-10-08T17:13:18.814Z,1.25
2022-10-08T17:18:22.212Z,1.10
2022-10-08T17:23:34.627Z,0.77
2022-10-08T17:28:40.841Z,1.08
2022-10-08T17:33:44.661Z,1.23
2022-10-08T17:38:54.018Z,1.10
2022-10-08T17:43:58.762Z,1.23
2022-10-08T17:49:02.068Z,0.82
2022-10-08T17:54:09.459Z,1.08
2022-10-08T17:59:22.667Z,0.85
2022-10-08T18:04:26.427Z,0.70
2022-10-08T18:09:32.455Z,1.15
2022-10-08T18:14:35.886Z,0.80
2022-10-08T18:19:39.329Z,0.68
2022-10-08T18:24:44.016Z,0.77
2022-10-08T18:29:47.345Z,1.25
2022-10-08T18:34:51.105Z,1.00
2022-10-08T18:39:55.914Z,1.05
2022-10-08T18:44:59.173Z,1.17
2022-10-08T18:50:02.983Z,1.35
2022-10-08T18:55:16.769Z,1.73
2022-10-08T19:00:20.110Z,1.40
2022-10-08T19:05:23.335Z,1.45
2022-10-08T19:10:28.118Z,1.10
2022-10-08T19:15:31.515Z,1.25
2022-10-08T19:20:36.160Z,1.30
2022-10-08T19:25:41.041Z,1.10
2022-10-08T19:30:44.360Z,1.42
2022-10-08T19:35:47.598Z,1.15
2022-10-08T19:40:52.240Z,1.17
2022-10-08T19:45:55.572Z,1.08
2022-10-08T19:51:03.695Z,1.35
2022-10-08T19:56:10.135Z,1.00
2022-10-08T20:01:15.576Z,1.25
2022-10-08T20:06:24.597Z,1.20
2022-10-08T20:11:31.389Z,1.20
2022-10-08T20:16:36.766Z,1.30
2022-10-08T20:21:40.143Z,1.50
2022-10-08T20:26:48.453Z,1.25
2022-10-08T20:31:55.260Z,1.75
2022-10-08T20:37:01.729Z,2.10
2022-10-08T20:42:06.885Z,1.73
2022-10-08T20:47:10.640Z,1.88
2022-10-08T20:52:14.575Z,1.80
2022-10-08T20:57:19.269Z,1.90
2022-10-08T21:02:23.645Z,1.77
2022-10-08T21:07:26.967Z,2.10
2022-10-08T21:12:32.386Z,1.85
2022-10-08T21:17:35.775Z,2.10
2022-10-08T21:22:39.051Z,2.22
2022-10-08T21:27:43.712Z,2.25
2022-10-08T21:32:47.328Z,2.15
2022-10-08T21:37:50.724Z,1.98
2022-10-08T21:42:55.315Z,2.40
2022-10-08T21:48:00.022Z,2.08
2022-10-08T21:53:10.353Z,2.08
2022-10-08T21:58:15.751Z,1.98
2022-10-08T22:03:19.547Z,2.35
2022-10-08T22:08:24.793Z,2.78
2022-10-08T22:13:30.430Z,2.60
2022-10-08T22:18:35.197Z,2.90
2022-10-08T22:23:38.861Z,2.20
2022-10-08T22:28:43.990Z,2.38
2022-10-08T22:33:47.776Z,2.50
2022-10-08T22:38:51.551Z,1.92
2022-10-08T22:43:56.337Z,2.65
2022-10-08T22:49:00.037Z,2.28
2022-10-08T22:54:03.436Z,2.45
2022-10-08T22:59:08.675Z,2.22
2022-10-08T23:04:12.112Z,2.50
2022-10-08T23:09:15.440Z,2.35
2022-10-08T23:14:26.028Z,2.63
2022-10-08T23:19:30.300Z,2.45
2022-10-08T23:24:35.495Z,2.40
2022-10-08T23:29:40.386Z,2.42
2022-10-08T23:34:43.728Z,2.50
2022-10-08T23:39:46.993Z,1.92
2022-10-08T23:44:51.717Z,2.30
2022-10-08T23:49:55.176Z,2.50
2022-10-08T23:54:58.620Z,2.20
